Time;durP1;ratioP1;P1;durP2;ratioP2;P2;SDS_P1;SDS_P2;PMS_P1;PMS_P2;Temp;Humidity;BMP_temperature;BMP_pressure;BME280_temperature;BME280_humidity;BME280_pressure;Samples;Min_cycle;Max_cycle;Signal;HPM_P1;HPM_P2
2021/08/31 00:00:28;;;;;;;44.00;29.95;;;;;;;14.07;100.00;101821.00;5001569;28;20137;-81
2021/08/31 00:02:53;;;;;;;44.42;31.80;;;;;;;14.10;100.00;101820.69;4998507;28;20046;-81
2021/08/31 00:05:18;;;;;;;46.70;32.90;;;;;;;14.08;100.00;101821.84;5011529;28;20053;-81
2021/08/31 00:07:44;;;;;;;45.03;30.80;;;;;;;14.00;100.00;101819.94;5000740;28;20092;-82
2021/08/31 00:10:11;;;;;;;47.08;30.75;;;;;;;13.94;100.00;101815.19;4999472;28;20054;-81
2021/08/31 00:12:39;;;;;;;43.60;29.23;;;;;;;13.89;100.00;101817.53;4999050;28;20038;-82
2021/08/31 00:15:06;;;;;;;47.50;31.48;;;;;;;13.89;100.00;101812.97;4993775;28;20050;-83
2021/08/31 00:17:31;;;;;;;42.30;29.25;;;;;;;13.82;100.00;101816.50;5005536;28;20390;-82
2021/08/31 00:19:57;;;;;;;44.28;30.63;;;;;;;13.77;100.00;101815.09;4992371;28;20054;-82
2021/08/31 00:22:24;;;;;;;53.20;34.92;;;;;;;13.82;100.00;101811.94;4992007;28;20038;-81
2021/08/31 00:24:50;;;;;;;49.85;34.72;;;;;;;13.85;100.00;101805.38;4997718;28;20038;-81
2021/08/31 00:27:15;;;;;;;54.58;37.13;;;;;;;13.85;100.00;101810.78;4997898;28;20056;-82
2021/08/31 00:29:40;;;;;;;57.42;36.90;;;;;;;13.88;100.00;101819.38;4997392;28;20046;-82
2021/08/31 00:32:07;;;;;;;54.95;33.70;;;;;;;13.84;100.00;101809.06;4993236;28;20050;-81
2021/08/31 00:34:33;;;;;;;53.58;34.78;;;;;;;13.82;100.00;101814.63;4988110;28;20050;-82
2021/08/31 00:36:59;;;;;;;52.40;36.22;;;;;;;13.83;100.00;101812.78;4999443;28;20068;-81
2021/08/31 00:39:25;;;;;;;55.95;36.78;;;;;;;13.79;100.00;101816.81;5000965;28;20050;-81
2021/08/31 00:41:52;;;;;;;56.35;37.53;;;;;;;13.76;100.00;101826.91;5001612;28;20034;-81
2021/08/31 00:44:26;;;;;;;56.70;37.78;;;;;;;13.74;100.00;101818.13;4985274;28;20495;-81
2021/08/31 00:46:56;;;;;;;49.58;34.00;;;;;;;13.66;100.00;101814.53;5001274;28;20237;-82
2021/08/31 00:49:22;;;;;;;58.45;37.83;;;;;;;13.67;100.00;101825.19;5009700;28;20062;-82
2021/08/31 00:51:48;;;;;;;56.65;36.67;;;;;;;13.65;100.00;101821.78;4994824;28;20119;-82
2021/08/31 00:54:18;;;;;;;58.03;39.22;;;;;;;13.63;100.00;101826.47;4986207;28;20515;-82
2021/08/31 00:56:50;;;;;;;68.90;40.97;;;;;;;13.63;100.00;101822.94;5001591;28;20033;-82
2021/08/31 00:59:20;;;;;;;67.20;41.65;;;;;;;13.62;100.00;101824.81;4997617;28;20463;-82
2021/08/31 01:01:50;;;;;;;74.03;44.72;;;;;;;13.61;100.00;101825.81;5002667;28;20387;-82
2021/08/31 01:04:20;;;;;;;75.15;42.85;;;;;;;13.63;100.00;101829.19;4994563;28;20045;-81
2021/08/31 01:06:46;;;;;;;82.22;46.28;;;;;;;13.62;100.00;101832.91;4996745;28;20723;-82
2021/08/31 01:09:12;;;;;;;93.85;48.30;;;;;;;13.66;100.00;101828.03;4994741;28;20037;-81
2021/08/31 01:11:37;;;;;;;86.53;47.22;;;;;;;13.69;100.00;101833.94;5000846;28;20057;-81
2021/08/31 01:14:06;;;;;;;106.28;50.53;;;;;;;13.68;100.00;101828.72;4997643;28;20046;-82
2021/08/31 01:16:31;;;;;;;107.15;50.22;;;;;;;13.67;100.00;101841.38;4993163;28;20464;-82
2021/08/31 01:18:58;;;;;;;109.75;49.55;;;;;;;13.70;100.00;101843.75;4997917;28;20140;-82
2021/08/31 01:21:25;;;;;;;105.78;51.78;;;;;;;13.70;100.00;101841.03;4981297;28;20412;-81
2021/08/31 01:23:51;;;;;;;124.72;53.45;;;;;;;13.72;100.00;101840.88;4999897;28;20513;-81
2021/08/31 01:26:16;;;;;;;112.47;51.75;;;;;;;13.73;100.00;101835.31;5013215;28;20550;-81
2021/08/31 01:28:42;;;;;;;123.22;52.50;;;;;;;13.77;100.00;101835.84;4994694;28;20128;-81
2021/08/31 01:31:08;;;;;;;117.90;49.28;;;;;;;13.70;100.00;101846.44;5008794;28;20049;-81
2021/08/31 01:33:34;;;;;;;104.20;49.05;;;;;;;13.73;100.00;101846.13;4996765;28;20033;-82
2021/08/31 01:36:22;;;;;;;121.40;49.30;;;;;;;13.73;100.00;101846.13;5001395;28;20042;-82
2021/08/31 01:38:49;;;;;;;123.38;51.08;;;;;;;13.75;100.00;101843.25;5016733;28;20502;-81
2021/08/31 01:41:15;;;;;;;145.93;53.63;;;;;;;13.75;100.00;101844.13;4998479;28;20506;-81
2021/08/31 01:43:41;;;;;;;116.40;50.17;;;;;;;13.76;100.00;101863.84;5000836;28;20495;-81
2021/08/31 01:46:07;;;;;;;139.82;51.67;;;;;;;13.77;100.00;101863.66;4997639;28;20054;-81
2021/08/31 01:48:32;;;;;;;144.85;53.03;;;;;;;13.78;100.00;101861.81;4982702;28;20553;-81
2021/08/31 01:50:59;;;;;;;113.40;51.33;;;;;;;13.72;100.00;101866.00;4999985;28;20583;-82
2021/08/31 01:53:25;;;;;;;159.93;53.60;;;;;;;13.74;100.00;101860.44;4998702;28;20483;-82
2021/08/31 01:55:50;;;;;;;115.57;51.85;;;;;;;13.82;100.00;101865.06;5002010;28;20034;-80
2021/08/31 01:58:17;;;;;;;165.98;56.22;;;;;;;13.83;100.00;101867.56;5016825;28;20061;-82
2021/08/31 02:00:42;;;;;;;98.35;46.25;;;;;;;13.83;100.00;101864.03;5010831;28;20042;-81
2021/08/31 02:03:08;;;;;;;111.30;50.83;;;;;;;13.88;100.00;101861.72;4998648;28;20042;-82
2021/08/31 02:05:33;;;;;;;121.30;50.88;;;;;;;13.87;100.00;101862.72;4997634;28;20049;-82
2021/08/31 02:07:59;;;;;;;125.55;52.40;;;;;;;13.89;100.00;101868.78;4997641;28;20128;-82
2021/08/31 02:10:25;;;;;;;115.60;52.80;;;;;;;13.86;100.00;101866.41;4994627;28;20054;-82
2021/08/31 02:12:51;;;;;;;110.28;50.83;;;;;;;13.91;100.00;101864.09;5009339;28;20050;-82
2021/08/31 02:15:16;;;;;;;134.18;53.03;;;;;;;13.90;100.00;101870.50;4997912;28;20104;-82
2021/08/31 02:17:42;;;;;;;99.35;48.85;;;;;;;13.96;100.00;101869.84;5001913;28;20391;-82
2021/08/31 02:20:09;;;;;;;102.43;48.92;;;;;;;13.97;100.00;101868.84;5005426;28;20042;-82
2021/08/31 02:22:35;;;;;;;109.40;51.45;;;;;;;13.96;100.00;101870.69;5000806;28;20556;-81
2021/08/31 02:25:02;;;;;;;115.72;51.90;;;;;;;13.98;100.00;101875.91;5005850;28;20041;-82
2021/08/31 02:27:29;;;;;;;104.25;48.30;;;;;;;13.98;100.00;101875.91;4990034;28;20073;-82
2021/08/31 02:29:54;;;;;;;109.43;50.83;;;;;;;13.95;100.00;101865.44;5022772;28;20504;-82
2021/08/31 02:32:20;;;;;;;115.72;53.90;;;;;;;13.96;100.00;101862.59;5003152;28;20510;-82
2021/08/31 02:34:46;;;;;;;134.07;54.78;;;;;;;13.99;100.00;101866.84;4989743;28;20034;-82
2021/08/31 02:37:12;;;;;;;118.47;50.00;;;;;;;14.00;100.00;101863.13;5014316;28;20372;-81
2021/08/31 02:39:37;;;;;;;116.78;53.05;;;;;;;13.99;100.00;101856.88;5013540;28;20042;-82
2021/08/31 02:42:04;;;;;;;122.68;53.72;;;;;;;14.03;100.00;101860.09;5006611;28;20054;-82
2021/08/31 02:44:29;;;;;;;112.18;50.60;;;;;;;14.06;100.00;101851.69;5001087;28;20138;-82
2021/08/31 02:46:55;;;;;;;117.72;51.50;;;;;;;14.09;100.00;101847.81;5003056;28;20041;-82
2021/08/31 02:49:20;;;;;;;111.80;51.38;;;;;;;14.10;100.00;101850.38;4981320;28;20033;-82
2021/08/31 02:51:48;;;;;;;115.65;52.20;;;;;;;14.12;100.00;101842.94;4997937;28;20073;-82
2021/08/31 02:54:13;;;;;;;125.63;53.95;;;;;;;14.13;100.00;101847.34;5000469;28;20160;-82
2021/08/31 02:56:39;;;;;;;117.40;50.50;;;;;;;14.12;100.00;101840.22;5003442;28;20721;-82
2021/08/31 02:59:05;;;;;;;126.60;53.47;;;;;;;14.18;100.00;101838.75;5011463;28;20137;-82
2021/08/31 03:01:34;;;;;;;116.32;50.45;;;;;;;14.19;100.00;101852.09;5004138;28;20117;-82
2021/08/31 03:04:01;;;;;;;123.07;53.08;;;;;;;14.23;100.00;101852.59;5004752;28;20041;-82
2021/08/31 03:06:28;;;;;;;144.13;56.20;;;;;;;14.20;100.00;101848.38;5001461;28;20069;-82
2021/08/31 03:08:53;;;;;;;141.60;58.30;;;;;;;14.19;100.00;101856.66;5002692;28;20057;-81
2021/08/31 03:11:19;;;;;;;126.00;53.47;;;;;;;14.21;100.00;101843.81;4998238;28;20042;-81
2021/08/31 03:13:45;;;;;;;137.23;55.40;;;;;;;14.22;100.00;101840.97;4996946;28;20391;-81
2021/08/31 03:16:10;;;;;;;138.93;52.00;;;;;;;14.17;100.00;101848.69;5018777;28;20088;-82
2021/08/31 03:18:36;;;;;;;136.50;54.47;;;;;;;14.17;100.00;101848.69;4997257;28;20120;-82
2021/08/31 03:21:01;;;;;;;139.25;54.22;;;;;;;14.18;100.00;101850.41;5005900;28;20493;-81
2021/08/31 03:23:26;;;;;;;138.18;56.88;;;;;;;14.19;100.00;101848.53;4997818;28;20050;-82
2021/08/31 03:25:52;;;;;;;141.95;54.38;;;;;;;14.17;100.00;101856.78;4995286;28;20383;-81
2021/08/31 03:28:17;;;;;;;137.50;52.22;;;;;;;14.17;100.00;101864.88;5003917;28;20050;-82
2021/08/31 03:30:43;;;;;;;149.57;53.75;;;;;;;14.17;100.00;101867.59;5002770;28;20081;-81
2021/08/31 03:33:08;;;;;;;152.75;51.40;;;;;;;14.13;100.00;101858.13;4998493;28;20042;-81
2021/08/31 03:35:34;;;;;;;145.60;54.00;;;;;;;14.17;100.00;101869.44;4987193;28;20132;-82
2021/08/31 03:37:59;;;;;;;130.57;51.55;;;;;;;14.16;100.00;101867.78;5001742;28;20049;-81
2021/08/31 03:40:25;;;;;;;144.15;52.75;;;;;;;14.18;100.00;101872.00;5002837;28;20046;-81
2021/08/31 03:42:51;;;;;;;132.40;50.70;;;;;;;14.13;100.00;101874.34;4983386;28;20045;-81
2021/08/31 03:45:16;;;;;;;147.95;51.22;;;;;;;14.11;100.00;101876.34;5004640;28;20506;-81
2021/08/31 03:47:43;;;;;;;153.07;55.28;;;;;;;14.10;100.00;101866.56;5002413;28;20137;-81
2021/08/31 03:50:10;;;;;;;136.90;50.58;;;;;;;14.11;100.00;101886.28;4998186;28;20770;-81
2021/08/31 03:52:36;;;;;;;128.75;49.30;;;;;;;14.12;100.00;101869.91;4999603;28;20050;-82
2021/08/31 03:55:01;;;;;;;125.35;49.35;;;;;;;14.10;100.00;101874.66;5013427;28;20042;-82
2021/08/31 03:57:28;;;;;;;138.32;52.00;;;;;;;14.12;100.00;101861.81;5002464;28;20061;-81
2021/08/31 03:59:53;;;;;;;126.03;49.00;;;;;;;14.17;100.00;101874.84;5005022;28;20057;-82
2021/08/31 04:02:21;;;;;;;130.98;46.92;;;;;;;14.16;100.00;101874.00;5005003;28;20073;-84
2021/08/31 04:04:46;;;;;;;129.40;49.15;;;;;;;14.16;100.00;101874.00;4991297;28;20052;-84
2021/08/31 04:07:12;;;;;;;108.95;46.88;;;;;;;14.17;100.00;101878.38;4988140;28;20140;-84
2021/08/31 04:09:37;;;;;;;124.15;47.53;;;;;;;14.14;100.00;101873.31;5009339;28;20562;-83
2021/08/31 04:12:05;;;;;;;135.13;49.67;;;;;;;14.17;100.00;101877.53;4995266;28;20039;-84
2021/08/31 04:14:30;;;;;;;127.63;49.75;;;;;;;14.22;100.00;101884.16;4987385;28;20141;-83
2021/08/31 04:16:56;;;;;;;130.48;49.67;;;;;;;14.25;100.00;101879.44;4984540;28;20187;-83
2021/08/31 04:19:21;;;;;;;129.20;51.28;;;;;;;14.24;100.00;101875.88;4966725;28;20073;-82
2021/08/31 04:21:46;;;;;;;122.90;49.25;;;;;;;14.19;100.00;101879.09;5001221;28;20513;-83
2021/08/31 04:24:12;;;;;;;115.50;45.55;;;;;;;14.27;100.00;101880.13;4993454;28;20096;-83
2021/08/31 04:26:37;;;;;;;128.57;48.83;;;;;;;14.28;100.00;101881.81;4990557;28;20073;-83
2021/08/31 04:29:02;;;;;;;141.52;51.40;;;;;;;14.30;100.00;101880.66;4991596;28;20322;-83
2021/08/31 04:31:28;;;;;;;129.10;48.60;;;;;;;14.33;100.00;101884.88;4991694;28;20050;-83
2021/08/31 04:33:53;;;;;;;126.03;50.20;;;;;;;14.32;100.00;101883.19;4963841;28;20042;-83
2021/08/31 04:36:19;;;;;;;131.25;48.15;;;;;;;14.32;100.00;101888.56;4978376;28;20077;-83
2021/08/31 04:38:45;;;;;;;131.05;49.13;;;;;;;14.34;100.00;101890.09;5003380;28;20046;-83
2021/08/31 04:41:11;;;;;;;129.38;46.40;;;;;;;14.35;100.00;101885.56;5004157;28;20510;-83
2021/08/31 04:43:36;;;;;;;122.15;46.38;;;;;;;14.39;100.00;101881.53;4998446;28;20248;-83
2021/08/31 04:46:02;;;;;;;133.90;48.10;;;;;;;14.40;100.00;101891.31;5000025;28;20168;-82
2021/08/31 04:48:27;;;;;;;125.47;45.92;;;;;;;14.38;100.00;101896.88;4993906;28;20395;-82
2021/08/31 04:50:53;;;;;;;145.93;49.13;;;;;;;14.38;100.00;101886.06;5001316;28;20053;-83
2021/08/31 04:53:20;;;;;;;139.73;46.88;;;;;;;14.43;100.00;101897.22;4997128;28;20394;-83
2021/08/31 04:55:45;;;;;;;130.82;47.85;;;;;;;14.44;100.00;101892.66;4985385;28;20050;-83
2021/08/31 04:58:11;;;;;;;121.72;46.25;;;;;;;14.47;100.00;101891.50;4995994;28;20376;-82
2021/08/31 05:00:36;;;;;;;131.48;46.28;;;;;;;14.47;100.00;101889.63;4998707;28;20095;-82
2021/08/31 05:03:01;;;;;;;157.25;52.67;;;;;;;14.47;100.00;101897.75;4998651;28;20123;-82
2021/08/31 05:05:27;;;;;;;143.65;50.67;;;;;;;14.47;100.00;101895.03;5000582;28;20057;-82
2021/08/31 05:07:52;;;;;;;123.85;47.03;;;;;;;14.50;100.00;101892.03;5003638;28;20392;-83
2021/08/31 05:10:17;;;;;;;124.80;48.13;;;;;;;14.47;100.00;101896.91;5018640;28;20129;-82
2021/08/31 05:12:43;;;;;;;126.93;46.42;;;;;;;14.49;100.00;101894.91;5015057;28;20429;-83
2021/08/31 05:15:09;;;;;;;116.28;44.47;;;;;;;14.50;100.00;101902.84;4997254;28;20044;-82
2021/08/31 05:17:35;;;;;;;131.70;49.38;;;;;;;14.53;100.00;101893.56;4998542;28;20061;-83
2021/08/31 05:20:04;;;;;;;128.65;47.28;;;;;;;14.54;100.00;101904.22;4999543;28;20292;-83
2021/08/31 05:22:30;;;;;;;122.07;44.35;;;;;;;14.56;100.00;101910.31;4991378;28;20477;-82
2021/08/31 05:24:55;;;;;;;125.57;47.38;;;;;;;14.56;100.00;101904.94;4997625;28;20073;-83
2021/08/31 05:27:23;;;;;;;134.65;50.97;;;;;;;14.57;100.00;101909.31;5002878;28;20083;-83
2021/08/31 05:29:49;;;;;;;131.13;47.60;;;;;;;14.61;100.00;101912.50;4994987;28;20487;-82
2021/08/31 05:32:17;;;;;;;129.13;48.25;;;;;;;14.61;100.00;101917.91;4993873;28;20105;-82
2021/08/31 05:34:42;;;;;;;139.48;50.78;;;;;;;14.62;100.00;101919.63;4993984;28;20049;-82
2021/08/31 05:37:08;;;;;;;130.27;47.47;;;;;;;14.61;100.00;101918.75;4994136;28;20487;-82
2021/08/31 05:39:34;;;;;;;124.38;46.90;;;;;;;14.62;100.00;101914.22;4992160;28;20044;-82
2021/08/31 05:42:01;;;;;;;123.28;46.03;;;;;;;14.63;100.00;101927.56;5002976;28;20092;-82
2021/08/31 05:44:26;;;;;;;117.90;47.20;;;;;;;14.65;100.00;101922.84;5000599;28;20063;-83
2021/08/31 05:46:52;;;;;;;110.82;45.97;;;;;;;14.61;100.00;101926.03;4996737;28;20558;-82
2021/08/31 05:49:17;;;;;;;105.22;45.47;;;;;;;14.62;100.00;101911.53;4989792;28;20052;-83
2021/08/31 05:51:42;;;;;;;112.82;44.50;;;;;;;14.64;100.00;101918.47;4980472;28;20046;-83
2021/08/31 05:54:08;;;;;;;103.53;42.92;;;;;;;14.68;100.00;101918.13;4990064;28;20088;-82
2021/08/31 05:56:33;;;;;;;103.68;44.10;;;;;;;14.69;100.00;101920.66;4994703;28;20053;-82
2021/08/31 05:58:58;;;;;;;95.60;42.75;;;;;;;14.73;100.00;101927.44;4996535;28;20163;-82
2021/08/31 06:01:24;;;;;;;101.28;42.33;;;;;;;14.76;100.00;101928.94;4996082;28;20042;-82
2021/08/31 06:03:49;;;;;;;92.80;43.30;;;;;;;14.78;100.00;101921.53;5003765;28;20053;-83
2021/08/31 06:06:16;;;;;;;85.53;41.45;;;;;;;14.78;100.00;101926.94;4983310;28;20519;-83
2021/08/31 06:08:41;;;;;;;99.30;44.30;;;;;;;14.75;100.00;101936.22;4993877;28;20087;-82
2021/08/31 06:11:07;;;;;;;91.38;40.85;;;;;;;14.77;100.00;101933.34;4997843;28;20652;-82
2021/08/31 06:13:32;;;;;;;84.47;39.08;;;;;;;14.78;100.00;101935.03;4985327;28;20046;-83
2021/08/31 06:15:58;;;;;;;79.85;37.10;;;;;;;14.81;100.00;101934.72;4993886;28;20050;-83
2021/08/31 06:18:23;;;;;;;78.63;37.78;;;;;;;14.84;100.00;101937.06;4998122;28;20050;-83
2021/08/31 06:20:48;;;;;;;83.88;38.15;;;;;;;14.85;100.00;101933.38;5011120;28;20125;-83
2021/08/31 06:23:14;;;;;;;78.60;34.08;;;;;;;14.85;100.00;101936.94;4992659;28;20574;-83
2021/08/31 06:25:39;;;;;;;73.60;36.60;;;;;;;14.86;100.00;101941.31;4993503;28;20037;-82
2021/08/31 06:28:05;;;;;;;70.88;32.72;;;;;;;14.89;100.00;101946.38;4983763;28;20061;-83
2021/08/31 06:30:30;;;;;;;70.45;35.70;;;;;;;14.90;100.00;101944.53;4995970;28;20125;-83
2021/08/31 06:32:56;;;;;;;72.72;36.15;;;;;;;14.91;100.00;101943.53;4998612;28;20046;-83
2021/08/31 06:35:23;;;;;;;60.95;33.75;;;;;;;14.95;100.00;101944.88;4996066;28;20069;-83
2021/08/31 06:37:49;;;;;;;60.90;33.35;;;;;;;14.98;100.00;101946.41;4989087;28;20373;-83
2021/08/31 06:40:14;;;;;;;62.05;33.63;;;;;;;15.00;100.00;101947.09;5006900;28;20905;-83
2021/08/31 06:42:40;;;;;;;61.05;33.08;;;;;;;15.01;100.00;101955.03;4994787;28;20422;-83
2021/08/31 06:45:06;;;;;;;64.57;33.97;;;;;;;15.02;100.00;101953.19;4994102;28;20398;-82
2021/08/31 06:47:31;;;;;;;58.22;32.33;;;;;;;15.01;100.00;101951.47;4997547;28;20052;-83
2021/08/31 06:49:56;;;;;;;64.10;32.20;;;;;;;15.11;100.00;101957.59;5000391;28;20139;-83
2021/08/31 06:52:22;;;;;;;50.17;30.17;;;;;;;15.08;100.00;101958.78;5001439;28;20443;-83
2021/08/31 06:54:47;;;;;;;57.58;30.98;;;;;;;15.09;100.00;101959.63;4999478;28;20042;-82
2021/08/31 06:57:13;;;;;;;48.92;29.58;;;;;;;15.09;100.00;101957.75;4986122;28;20129;-83
2021/08/31 06:59:39;;;;;;;54.03;29.10;;;;;;;15.12;100.00;101956.59;4997557;28;20088;-82
2021/08/31 07:02:05;;;;;;;48.92;28.88;;;;;;;15.10;100.00;101954.06;5005357;28;20199;-83
2021/08/31 07:04:30;;;;;;;44.60;26.40;;;;;;;15.11;100.00;101960.31;4980297;28;20580;-82
2021/08/31 07:06:56;;;;;;;46.70;27.90;;;;;;;15.19;100.00;101960.34;4999416;28;20050;-83
2021/08/31 07:09:21;;;;;;;41.47;24.83;;;;;;;15.16;100.00;101974.16;5001803;28;20041;-83
2021/08/31 07:11:47;;;;;;;43.33;26.52;;;;;;;15.23;100.00;101974.34;4973180;28;20046;-83
2021/08/31 07:14:12;;;;;;;48.28;25.63;;;;;;;15.28;100.00;101970.13;5000561;28;20362;-82
2021/08/31 07:16:38;;;;;;;39.92;25.70;;;;;;;15.31;100.00;101974.38;4998618;28;20445;-82
2021/08/31 07:19:03;;;;;;;35.42;22.80;;;;;;;15.40;100.00;101969.81;4999395;28;20048;-83
2021/08/31 07:21:28;;;;;;;38.17;23.30;;;;;;;15.43;100.00;101964.06;5013107;28;20100;-83
2021/08/31 07:23:54;;;;;;;33.92;22.60;;;;;;;15.43;100.00;101970.31;4998817;28;20429;-82
2021/08/31 07:26:19;;;;;;;38.45;21.88;;;;;;;15.43;100.00;101970.31;4989989;28;20518;-83
2021/08/31 07:28:45;;;;;;;39.50;22.60;;;;;;;15.46;100.00;101978.09;5000550;28;20049;-83
2021/08/31 07:31:11;;;;;;;36.85;23.50;;;;;;;15.53;100.00;101973.69;4998487;28;20054;-82
2021/08/31 07:33:36;;;;;;;34.28;21.50;;;;;;;15.58;100.00;101984.88;4994803;28;20053;-82
2021/08/31 07:36:02;;;;;;;37.03;22.10;;;;;;;15.59;100.00;101985.72;4993953;28;20050;-83
2021/08/31 07:38:27;;;;;;;35.95;21.52;;;;;;;15.65;100.00;101989.59;4991782;28;20499;-82
2021/08/31 07:40:53;;;;;;;33.30;23.30;;;;;;;15.69;100.00;101991.00;4998657;28;20034;-83
2021/08/31 07:43:19;;;;;;;37.60;23.15;;;;;;;15.72;100.00;101996.91;5009739;28;20046;-83
2021/08/31 07:45:45;;;;;;;40.65;24.00;;;;;;;15.79;100.00;101988.97;5001216;28;20060;-83
2021/08/31 07:48:10;;;;;;;35.38;23.83;;;;;;;15.78;100.00;101987.28;4990953;28;20057;-83
2021/08/31 07:50:35;;;;;;;38.85;23.33;;;;;;;15.79;100.00;101989.81;4995936;28;20077;-83
2021/08/31 07:53:01;;;;;;;37.10;20.90;;;;;;;15.91;100.00;101995.75;4996144;28;20050;-83
2021/08/31 07:55:27;;;;;;;35.78;22.70;;;;;;;15.99;100.00;101997.56;4994101;28;20057;-83
2021/08/31 07:57:52;;;;;;;37.25;23.02;;;;;;;15.93;100.00;101990.13;4999577;28;20076;-83
2021/08/31 08:00:18;;;;;;;38.42;23.70;;;;;;;15.94;100.00;101992.69;4995753;28;20046;-83
2021/08/31 08:02:44;;;;;;;35.47;21.45;;;;;;;16.09;100.00;102002.84;4997890;28;20120;-83
2021/08/31 08:05:10;;;;;;;30.75;20.13;;;;;;;16.21;100.00;101991.47;4983407;28;20467;-83
2021/08/31 08:07:36;;;;;;;30.30;20.63;;;;;;;16.18;100.00;101996.38;4978587;28;20077;-83
2021/08/31 08:10:03;;;;;;;29.42;19.70;;;;;;;16.23;100.00;101994.84;5016169;28;20038;-83
2021/08/31 08:12:28;;;;;;;25.38;16.55;;;;;;;16.29;100.00;101995.19;4999012;28;20132;-83
2021/08/31 08:14:53;;;;;;;26.05;17.33;;;;;;;16.38;100.00;101992.28;5005161;28;20133;-83
2021/08/31 08:17:22;;;;;;;20.60;14.20;;;;;;;16.43;100.00;101995.31;4989671;28;20556;-83
2021/08/31 08:19:49;;;;;;;25.35;14.00;;;;;;;16.55;100.00;101998.50;5000334;28;20044;-83
2021/08/31 08:22:15;;;;;;;20.20;13.52;;;;;;;16.64;98.94;102002.84;4983333;28;20406;-83
2021/08/31 08:24:41;;;;;;;18.60;13.15;;;;;;;16.70;98.45;102002.16;5011360;28;20041;-83
2021/08/31 08:27:07;;;;;;;21.45;13.32;;;;;;;16.85;99.22;102009.56;5000555;28;20041;-83
2021/08/31 08:29:36;;;;;;;20.42;13.52;;;;;;;16.98;98.03;102009.03;4999887;28;20095;-83
2021/08/31 08:32:05;;;;;;;21.30;14.48;;;;;;;17.05;97.12;102010.84;5001744;28;20149;-83
2021/08/31 08:34:30;;;;;;;18.25;14.13;;;;;;;17.10;97.43;102007.59;4995628;28;20064;-83
2021/08/31 08:36:57;;;;;;;18.35;13.77;;;;;;;17.13;96.56;102018.09;4968812;28;20046;-83
2021/08/31 08:39:23;;;;;;;19.67;12.20;;;;;;;17.13;95.36;102007.25;5000991;28;20041;-83
2021/08/31 08:41:48;;;;;;;18.95;12.63;;;;;;;17.24;94.93;102014.16;4996819;28;20057;-83
2021/08/31 08:44:14;;;;;;;18.30;12.77;;;;;;;17.30;93.89;102006.13;4997143;28;20586;-83
2021/08/31 08:46:40;;;;;;;16.23;12.05;;;;;;;17.30;93.25;102016.97;4995624;28;20057;-83
2021/08/31 08:49:11;;;;;;;17.23;11.52;;;;;;;17.39;93.93;102016.94;4993648;28;20042;-82
2021/08/31 08:51:36;;;;;;;17.50;12.25;;;;;;;17.55;93.59;102017.66;4997123;28;21557;-83
2021/08/31 08:54:02;;;;;;;17.10;11.95;;;;;;;17.57;92.69;102020.19;5005948;28;20061;-83
2021/08/31 08:56:28;;;;;;;16.27;11.80;;;;;;;17.70;93.22;102020.44;4999889;28;20042;-83
2021/08/31 08:58:53;;;;;;;20.90;12.85;;;;;;;17.67;90.23;102019.97;4991543;28;20498;-83
2021/08/31 09:01:18;;;;;;;18.25;12.07;;;;;;;17.62;91.23;102015.06;4993643;28;20045;-83
2021/08/31 09:03:52;;;;;;;21.25;11.70;;;;;;;17.64;91.82;102004.88;4991202;28;20065;-83
2021/08/31 09:06:20;;;;;;;18.05;11.30;;;;;;;17.65;92.35;102017.41;4998281;28;20040;-83
2021/08/31 09:08:56;;;;;;;17.73;11.55;;;;;;;17.67;90.51;102018.09;5013845;28;20041;-83
2021/08/31 09:11:26;;;;;;;15.52;11.30;;;;;;;17.64;90.38;102026.59;5013152;28;20324;-83
2021/08/31 09:14:12;;;;;;;15.15;8.88;;;;;;;17.70;89.30;102019.59;4989456;28;20368;-83
2021/08/31 09:16:38;;;;;;;13.48;7.55;;;;;;;17.82;87.32;102015.44;4995203;28;20068;-83
2021/08/31 09:19:03;;;;;;;13.23;7.88;;;;;;;17.96;86.26;102017.38;5000999;28;20585;-83
2021/08/31 09:21:29;;;;;;;11.18;7.25;;;;;;;18.15;86.29;102026.84;4999965;28;20049;-83
2021/08/31 09:23:57;;;;;;;11.05;6.68;;;;;;;18.44;85.45;102027.91;5003743;28;20034;-83
2021/08/31 09:26:37;;;;;;;12.45;6.57;;;;;;;18.60;84.81;102019.59;5004477;28;20034;-83
2021/08/31 09:29:19;;;;;;;13.23;7.00;;;;;;;18.62;82.74;102025.69;5020282;28;20283;-83
2021/08/31 09:31:56;;;;;;;11.85;7.10;;;;;;;18.77;82.03;102016.72;5002060;28;20046;-83
2021/08/31 09:34:51;;;;;;;11.52;6.60;;;;;;;18.82;82.34;102015.13;5003482;28;20034;-83
2021/08/31 09:37:25;;;;;;;10.85;6.45;;;;;;;18.72;80.92;102009.94;4989852;28;20121;-83
2021/08/31 09:40:05;;;;;;;12.40;7.38;;;;;;;18.78;82.33;102021.13;4993990;28;20088;-83
2021/08/31 09:42:31;;;;;;;10.73;6.40;;;;;;;18.75;80.38;102030.50;5007408;28;20042;-83
2021/08/31 09:45:04;;;;;;;9.45;5.82;;;;;;;18.71;81.09;102026.44;5001054;28;20091;-83
2021/08/31 09:47:36;;;;;;;9.15;6.60;;;;;;;18.71;79.55;102035.44;5003536;28;20029;-84
2021/08/31 09:50:07;;;;;;;11.82;6.65;;;;;;;18.68;80.90;102030.38;5005584;28;20096;-83
2021/08/31 09:52:32;;;;;;;9.48;5.93;;;;;;;18.66;81.71;102027.00;5005072;28;20050;-83
2021/08/31 09:54:58;;;;;;;10.57;6.30;;;;;;;18.81;80.65;102023.47;5003879;28;20046;-83
2021/08/31 09:57:38;;;;;;;9.35;5.80;;;;;;;18.87;78.17;102030.84;5001678;28;20034;-83
2021/08/31 10:00:07;;;;;;;9.80;6.55;;;;;;;18.77;78.04;102036.59;5004291;28;20160;-83
2021/08/31 10:02:33;;;;;;;10.63;6.55;;;;;;;18.72;79.41;102025.41;5019682;28;20053;-83
2021/08/31 10:04:59;;;;;;;8.93;5.70;;;;;;;18.76;79.16;102028.63;5004015;28;20399;-83
2021/08/31 10:07:25;;;;;;;7.82;5.68;;;;;;;18.85;80.80;102032.94;5003207;28;20038;-83
2021/08/31 10:09:52;;;;;;;11.25;5.68;;;;;;;18.93;78.83;102030.09;5005377;28;20250;-83
2021/08/31 10:12:20;;;;;;;9.13;5.30;;;;;;;19.00;78.85;102031.03;5008788;28;20042;-83
2021/08/31 10:14:50;;;;;;;7.95;5.55;;;;;;;19.04;78.52;102029.63;4976645;28;20046;-83
2021/08/31 10:17:18;;;;;;;11.18;5.75;;;;;;;19.14;76.68;102024.72;5006755;28;20042;-84
2021/08/31 10:19:46;;;;;;;8.98;5.57;;;;;;;19.35;78.11;102020.34;5008761;28;20050;-83
2021/08/31 10:22:14;;;;;;;9.48;5.70;;;;;;;19.69;77.50;102022.41;5007507;28;20042;-84
2021/08/31 10:24:45;;;;;;;8.27;5.05;;;;;;;19.92;77.50;102021.38;5008738;28;20499;-83
2021/08/31 10:27:40;;;;;;;7.63;5.57;;;;;;;20.06;76.52;102018.56;5008653;28;20071;-84
2021/08/31 10:30:14;;;;;;;8.02;6.15;;;;;;;19.99;77.04;102023.09;5008348;28;20502;-84
2021/08/31 10:32:41;;;;;;;12.10;7.47;;;;;;;19.83;76.25;102023.38;5023067;28;20046;-84
2021/08/31 10:35:07;;;;;;;10.25;7.10;;;;;;;19.67;76.45;102023.66;5005516;28;20189;-83
2021/08/31 10:37:47;;;;;;;11.68;7.18;;;;;;;19.63;76.81;102028.63;5008108;28;20133;-84
2021/08/31 10:40:32;;;;;;;11.80;7.50;;;;;;;19.58;76.13;102033.78;5007623;28;20034;-84
2021/08/31 10:42:58;;;;;;;13.40;7.47;;;;;;;19.47;76.83;102043.31;5019109;28;20042;-84
2021/08/31 10:45:35;;;;;;;11.52;8.00;;;;;;;19.45;76.71;102036.34;5007789;28;20502;-83
2021/08/31 10:48:20;;;;;;;11.15;7.50;;;;;;;19.46;78.31;102035.34;5008886;28;20038;-84
2021/08/31 10:50:59;;;;;;;11.30;7.35;;;;;;;19.39;78.39;102027.94;4993483;28;20462;-83
2021/08/31 10:53:43;;;;;;;11.35;6.90;;;;;;;19.47;78.17;102035.13;5008214;28;20137;-83
2021/08/31 10:56:23;;;;;;;11.23;7.07;;;;;;;19.57;77.91;102035.69;5006796;28;20048;-83
2021/08/31 10:58:52;;;;;;;12.68;7.65;;;;;;;19.72;77.23;102029.34;4986531;28;20039;-83
2021/08/31 11:01:19;;;;;;;;;;;;;;;19.77;77.46;102035.06;5006502;28;20054;-83